This is the latest recevied weather packets stored in our database for station/object KB1FCH. If no packets are shown the sender has not sent any weather packets the latest 10 day(s).
| Time | Temp. | Humidity | Pressure | Rain* | Wind** | Luminosity | Snow |
|---|---|---|---|---|---|---|---|
| 1778123146 | 12.78° C | 89% | 1002.9 hPa | 0 mm | - | 2 W/m² | - |
| 1778122547 | 12.78° C | 89% | 1002.8 hPa | 0 mm | - | 3 W/m² | - |
| 1778117146 | 13.33° C | 82% | 1002.7 hPa | 0 mm | - | 15 W/m² | - |
| 1778116546 | 13.33° C | 82% | 1002.7 hPa | 0 mm | - | 23 W/m² | - |
| 1778112946 | 13.33° C | 84% | 1003 hPa | 0 mm | - | 48 W/m² | - |
| 1778106345 | 12.22° C | 90% | 1003.1 hPa | 0 mm | - | 43 W/m² | - |
| 1778105746 | 12.22° C | 91% | 1003.2 hPa | 0 mm | - | 42 W/m² | - |
| 1778104546 | 12.22° C | 90% | 1003.2 hPa | 0 mm | - | 52 W/m² | - |
| 1778099145 | 13.89° C | 87% | 1002.9 hPa | 0 mm | - | 54 W/m² | - |
| 1778098545 | 13.89° C | 87% | 1002.9 hPa | 0 mm | - | 69 W/m² | - |
| 1778094345 | 12.78° C | 92% | 1002.8 hPa | 0 mm | - | 65 W/m² | - |
| 1778091345 | 13.33° C | 91% | 1002.4 hPa | 0 mm | - | 79 W/m² | - |
| 1778087153 | 12.78° C | 92% | 1002.4 hPa | 0 mm | - | 63 W/m² | - |
| 1778085346 | 12.22° C | 95% | 1001.9 hPa | 0 mm | - | 48 W/m² | - |
| 1778084145 | 12.22° C | 98% | 1001.8 hPa | 0 mm | - | 78 W/m² | - |
| 1778081747 | 11.67° C | 99% | 1002 hPa | 0 mm | - | 22 W/m² | - |
| 1778078445 | 11.67° C | 99% | 1001.8 hPa | 0 mm | - | 17 W/m² | - |
| 1778073644 | 11.11° C | 99% | 1001.3 hPa | 0 mm | - | 4 W/m² | - |
| 1778066444 | 10.56° C | 99% | 1000.6 hPa | 0 mm | - | 0 W/m² | - |
| 1778065245 | 10.56° C | 99% | 1000.5 hPa | 0 mm | - | 0 W/m² | - |
| 1778064645 | 10.56° C | 99% | 1000.4 hPa | 0 mm | - | 0 W/m² | - |
| 1778058045 | 8.89° C | 99% | 999.6 hPa | 0 mm | - | 0 W/m² | - |
| 1778053244 | 9.44° C | 99% | 999.3 hPa | 0 mm | - | 0 W/m² | - |
| 1778052045 | 10° C | 99% | 999.3 hPa | 0 mm | - | 0 W/m² | - |
| 1778048447 | 10.56° C | 98% | 998.7 hPa | 0 mm | - | 0 W/m² | - |
* Rain latest hour (hover to see other rain measurements)
** Current wind speed in m/s (hover to see current wind gust speed)